Time;durP1;ratioP1;P1;durP2;ratioP2;P2;SDS_P1;SDS_P2;PMS_P1;PMS_P2;Temp;Humidity;BMP_temperature;BMP_pressure;BME280_temperature;BME280_humidity;BME280_pressure;Samples;Min_cycle;Max_cycle;Signal;HPM_P1;HPM_P2
2021/12/03 00:01:24;;;;;;;6.97;3.75;;;22.70;41.50;;;;;;6134992;28;80567;-66
2021/12/03 00:04:25;;;;;;;8.93;4.32;;;22.70;41.10;;;;;;6126919;28;80557;-66
2021/12/03 00:07:25;;;;;;;7.68;4.03;;;22.70;40.90;;;;;;6127772;28;80231;-65
2021/12/03 00:10:27;;;;;;;7.15;3.90;;;22.70;41.10;;;;;;6134414;28;80209;-66
2021/12/03 00:13:28;;;;;;;7.97;3.88;;;22.70;41.10;;;;;;6136736;28;81397;-66
2021/12/03 00:16:28;;;;;;;7.13;3.50;;;22.70;41.00;;;;;;6137208;28;80593;-66
2021/12/03 00:19:29;;;;;;;6.60;2.90;;;22.70;41.20;;;;;;6141188;28;80356;-66
2021/12/03 00:22:29;;;;;;;6.10;3.22;;;22.70;40.90;;;;;;6134515;28;80976;-66
2021/12/03 00:25:30;;;;;;;4.53;3.20;;;22.70;40.90;;;;;;6136069;28;80509;-66
2021/12/03 00:28:31;;;;;;;7.00;3.60;;;22.70;41.10;;;;;;6140009;28;80796;-66
2021/12/03 00:31:32;;;;;;;7.07;3.33;;;22.70;41.40;;;;;;6134621;28;82523;-66
2021/12/03 00:34:32;;;;;;;6.53;3.33;;;22.70;41.10;;;;;;6134820;28;80407;-66
2021/12/03 00:37:33;;;;;;;7.60;3.35;;;22.70;41.00;;;;;;6135885;28;80134;-66
2021/12/03 00:40:33;;;;;;;5.78;2.88;;;22.70;40.80;;;;;;6136207;28;80699;-66
2021/12/03 00:43:34;;;;;;;4.80;2.83;;;22.70;40.70;;;;;;6135814;28;80079;-66
2021/12/03 00:46:34;;;;;;;5.47;3.15;;;22.70;40.80;;;;;;6133690;28;81855;-65
2021/12/03 00:49:35;;;;;;;8.00;3.60;;;22.70;40.90;;;;;;6132435;28;82575;-65
2021/12/03 00:52:35;;;;;;;7.75;3.40;;;22.60;40.60;;;;;;6130990;28;80559;-65
2021/12/03 00:55:36;;;;;;;7.03;3.88;;;22.60;40.60;;;;;;6131361;28;81059;-65
2021/12/03 00:58:36;;;;;;;6.03;3.45;;;22.60;40.90;;;;;;6132182;28;81562;-65
2021/12/03 01:01:38;;;;;;;5.65;3.20;;;22.60;41.00;;;;;;6135460;28;86869;-65
2021/12/03 01:04:39;;;;;;;5.97;3.53;;;22.60;41.20;;;;;;6145549;28;80452;-65
2021/12/03 01:07:39;;;;;;;9.23;2.90;;;22.60;41.10;;;;;;6133260;28;80177;-64
2021/12/03 01:10:40;;;;;;;4.32;3.00;;;22.60;41.00;;;;;;6132318;28;80651;-64
2021/12/03 01:13:40;;;;;;;6.53;3.17;;;22.60;41.50;;;;;;6126020;28;81915;-65
2021/12/03 01:16:41;;;;;;;5.85;3.03;;;22.60;41.10;;;;;;6132431;28;80579;-65
2021/12/03 01:19:41;;;;;;;4.72;2.50;;;22.60;41.30;;;;;;6134286;28;80948;-65
2021/12/03 01:22:42;;;;;;;4.38;2.45;;;22.60;41.30;;;;;;6138998;28;81565;-65
2021/12/03 01:25:42;;;;;;;4.88;2.72;;;22.60;41.20;;;;;;6128337;28;81846;-65
2021/12/03 01:28:43;;;;;;;7.65;3.38;;;22.60;41.00;;;;;;6137558;28;80486;-65
2021/12/03 01:31:43;;;;;;;5.80;2.92;;;22.60;41.00;;;;;;6139734;28;81113;-65
2021/12/03 01:34:44;;;;;;;5.82;3.03;;;22.50;41.10;;;;;;6131468;28;80225;-65
2021/12/03 01:37:44;;;;;;;4.97;2.97;;;22.50;41.20;;;;;;6138650;28;80259;-66
2021/12/03 01:40:45;;;;;;;3.83;2.55;;;22.50;41.30;;;;;;6128027;28;80857;-66
2021/12/03 01:43:46;;;;;;;4.30;2.78;;;22.50;41.00;;;;;;6136456;28;80356;-66
2021/12/03 01:46:46;;;;;;;7.28;2.90;;;22.50;41.10;;;;;;6138928;28;80459;-66
2021/12/03 01:49:46;;;;;;;4.00;2.65;;;22.50;40.70;;;;;;6131069;28;81351;-65
2021/12/03 01:52:47;;;;;;;5.05;2.75;;;22.50;41.00;;;;;;6137384;28;80863;-65
2021/12/03 01:55:48;;;;;;;5.00;2.58;;;22.50;40.50;;;;;;6137097;28;80816;-65
2021/12/03 01:58:48;;;;;;;5.30;2.63;;;22.50;40.30;;;;;;6138661;28;80353;-66
2021/12/03 02:01:49;;;;;;;5.88;3.15;;;22.50;40.30;;;;;;6137221;28;81434;-66
2021/12/03 02:04:49;;;;;;;5.45;2.67;;;22.50;40.40;;;;;;6137374;28;81053;-66
2021/12/03 02:07:50;;;;;;;6.40;2.67;;;22.50;40.30;;;;;;6136471;28;80569;-66
2021/12/03 02:10:50;;;;;;;4.93;2.72;;;22.50;40.40;;;;;;6153474;28;81282;-65
2021/12/03 02:13:51;;;;;;;5.65;2.70;;;22.50;40.30;;;;;;6133750;28;80641;-66
2021/12/03 02:16:51;;;;;;;5.90;3.17;;;22.50;40.10;;;;;;6135490;28;80736;-66
2021/12/03 02:19:52;;;;;;;5.18;2.70;;;22.50;40.30;;;;;;6136486;28;80315;-65
2021/12/03 02:22:52;;;;;;;6.28;2.97;;;22.50;40.10;;;;;;6133885;28;81461;-65
2021/12/03 02:25:53;;;;;;;5.95;2.80;;;22.50;40.20;;;;;;6130308;28;80601;-65
2021/12/03 02:28:54;;;;;;;5.88;3.03;;;22.50;40.30;;;;;;6140288;28;80037;-65
2021/12/03 02:31:54;;;;;;;6.03;3.15;;;22.50;40.00;;;;;;6139132;28;81780;-65
2021/12/03 02:34:55;;;;;;;4.35;2.72;;;22.50;39.90;;;;;;6138329;28;80253;-65
2021/12/03 02:37:55;;;;;;;6.30;2.70;;;22.50;40.00;;;;;;6137933;28;80286;-65
2021/12/03 02:40:56;;;;;;;3.65;2.40;;;22.50;40.10;;;;;;6135757;28;80843;-66
2021/12/03 02:43:56;;;;;;;4.85;2.42;;;22.50;40.10;;;;;;6147255;28;81668;-65
2021/12/03 02:46:57;;;;;;;4.25;2.50;;;22.50;40.50;;;;;;6130785;28;80523;-65
2021/12/03 02:49:57;;;;;;;3.90;2.08;;;22.50;40.40;;;;;;6134772;28;80369;-66
2021/12/03 02:52:58;;;;;;;7.30;2.45;;;22.40;40.20;;;;;;6152683;28;81548;-65
2021/12/03 02:55:58;;;;;;;4.10;2.58;;;22.40;40.20;;;;;;6136892;28;80664;-66
2021/12/03 02:58:59;;;;;;;4.75;2.72;;;22.40;41.00;;;;;;6127500;28;81008;-66
2021/12/03 03:01:59;;;;;;;4.18;2.33;;;22.40;40.30;;;;;;6134874;28;80439;-65
2021/12/03 03:05:00;;;;;;;3.50;2.10;;;22.40;40.20;;;;;;6148250;28;80596;-65
2021/12/03 03:08:00;;;;;;;4.00;2.55;;;22.40;40.10;;;;;;6134132;28;81909;-65
2021/12/03 03:11:03;;;;;;;5.00;2.80;;;22.40;40.10;;;;;;6137449;28;80378;-65
2021/12/03 03:14:03;;;;;;;5.00;2.60;;;22.40;40.40;;;;;;6126156;28;80699;-66
2021/12/03 03:17:04;;;;;;;4.85;2.67;;;22.40;39.50;;;;;;6122947;28;80269;-66
2021/12/03 03:20:04;;;;;;;4.07;2.15;;;22.40;38.70;;;;;;6130495;28;81221;-66
2021/12/03 03:23:05;;;;;;;4.60;2.65;;;22.50;38.50;;;;;;6136511;28;80997;-65
2021/12/03 03:26:05;;;;;;;3.53;2.30;;;22.50;38.30;;;;;;6136233;28;80120;-67
2021/12/03 03:29:06;;;;;;;4.00;2.40;;;22.60;38.40;;;;;;6136469;28;80461;-65
2021/12/03 03:32:06;;;;;;;4.97;2.58;;;22.60;38.20;;;;;;6137259;28;80387;-66
2021/12/03 03:35:07;;;;;;;4.20;2.75;;;22.70;38.10;;;;;;6131952;28;81514;-67
2021/12/03 03:38:07;;;;;;;4.80;2.22;;;22.80;38.00;;;;;;6135852;28;80116;-66
2021/12/03 03:41:08;;;;;;;4.80;2.15;;;22.80;37.90;;;;;;6136035;28;80575;-66
2021/12/03 03:44:08;;;;;;;4.85;2.72;;;22.80;37.90;;;;;;6134461;28;81901;-66
2021/12/03 03:47:09;;;;;;;3.58;2.40;;;22.90;37.60;;;;;;6135646;28;81308;-66
2021/12/03 03:50:09;;;;;;;3.40;2.05;;;22.90;37.50;;;;;;6148830;28;80302;-67
2021/12/03 03:53:10;;;;;;;3.25;1.98;;;22.90;37.40;;;;;;6136750;28;80502;-66
2021/12/03 03:56:10;;;;;;;5.05;2.22;;;23.00;37.50;;;;;;6134235;28;80146;-66
2021/12/03 03:59:11;;;;;;;3.55;2.00;;;23.00;37.30;;;;;;6134807;28;81446;-66
2021/12/03 04:02:11;;;;;;;3.78;2.10;;;23.00;37.40;;;;;;6135176;28;80338;-66
2021/12/03 04:05:12;;;;;;;4.03;2.03;;;23.00;37.20;;;;;;6136031;28;88844;-66
2021/12/03 04:08:12;;;;;;;5.65;2.45;;;23.10;37.30;;;;;;6132097;28;80335;-66
2021/12/03 04:11:13;;;;;;;4.55;2.35;;;23.10;37.30;;;;;;6135322;28;81634;-66
2021/12/03 04:14:13;;;;;;;4.25;2.58;;;23.10;37.30;;;;;;6136234;28;81802;-66
2021/12/03 04:17:14;;;;;;;4.20;2.30;;;23.10;37.30;;;;;;6134898;28;80911;-66
2021/12/03 04:20:15;;;;;;;3.10;2.13;;;23.10;37.30;;;;;;6135229;28;80380;-66
2021/12/03 04:23:18;;;;;;;3.80;2.08;;;23.10;37.20;;;;;;6128225;28;80998;-66
2021/12/03 04:26:19;;;;;;;4.32;2.30;;;23.10;37.20;;;;;;6130223;28;81273;-66
2021/12/03 04:29:19;;;;;;;5.65;2.80;;;23.20;37.10;;;;;;6129593;28;80158;-67
2021/12/03 04:32:22;;;;;;;3.83;2.13;;;23.20;37.30;;;;;;6128493;28;80286;-66
2021/12/03 04:35:23;;;;;;;5.50;2.35;;;23.20;37.10;;;;;;6134499;28;80797;-67
2021/12/03 04:38:23;;;;;;;3.78;2.33;;;23.20;37.10;;;;;;6134470;28;81721;-66
2021/12/03 04:41:24;;;;;;;3.70;2.05;;;23.20;37.10;;;;;;6134975;28;81334;-65
2021/12/03 04:44:24;;;;;;;4.18;2.50;;;23.20;37.10;;;;;;6128115;28;80289;-65
2021/12/03 04:47:25;;;;;;;5.15;2.50;;;23.20;37.10;;;;;;6133652;28;80300;-65
2021/12/03 04:50:25;;;;;;;3.55;1.90;;;23.20;37.00;;;;;;6136277;28;80246;-65
2021/12/03 04:53:26;;;;;;;4.45;2.28;;;23.20;37.00;;;;;;6148267;28;81875;-65
2021/12/03 04:56:26;;;;;;;4.07;2.10;;;23.20;37.00;;;;;;6132353;28;81086;-66
2021/12/03 04:59:27;;;;;;;7.30;2.38;;;23.20;37.10;;;;;;6127933;28;80106;-65
2021/12/03 05:02:27;;;;;;;6.55;2.40;;;23.20;37.10;;;;;;6132486;28;83639;-66
2021/12/03 05:05:32;;;;;;;4.10;2.42;;;23.20;37.00;;;;;;6127746;28;81659;-63
2021/12/03 05:08:32;;;;;;;3.42;2.15;;;23.20;37.00;;;;;;6133167;28;80959;-66
2021/12/03 05:11:33;;;;;;;3.55;2.17;;;23.20;36.90;;;;;;6125303;28;80891;-64
2021/12/03 05:14:33;;;;;;;3.95;1.90;;;23.20;37.00;;;;;;6144659;28;80770;-65
2021/12/03 05:17:34;;;;;;;2.50;1.85;;;23.20;37.10;;;;;;6133320;28;80523;-66
2021/12/03 05:20:34;;;;;;;3.67;1.85;;;23.20;37.10;;;;;;6129358;28;80106;-65
2021/12/03 05:23:35;;;;;;;3.85;2.13;;;23.20;37.10;;;;;;6134853;28;80929;-65
2021/12/03 05:26:36;;;;;;;3.90;2.10;;;23.30;37.10;;;;;;6128864;28;80552;-68
2021/12/03 05:29:36;;;;;;;3.92;2.08;;;23.20;37.10;;;;;;6132199;28;80672;-71
2021/12/03 05:32:37;;;;;;;2.50;1.50;;;23.20;37.20;;;;;;6133226;28;80409;-69
2021/12/03 05:35:37;;;;;;;5.45;1.55;;;23.10;39.60;;;;;;6136990;28;82044;-71
2021/12/03 05:38:38;;;;;;;1.65;1.27;;;23.00;41.30;;;;;;6132876;28;80883;-71
2021/12/03 05:41:38;;;;;;;1.48;1.10;;;23.00;41.90;;;;;;6120511;28;80412;-74
2021/12/03 05:44:39;;;;;;;4.18;1.20;;;23.00;42.80;;;;;;6129315;28;81980;-76
2021/12/03 05:47:40;;;;;;;4.78;1.95;;;23.00;43.60;;;;;;6132736;28;80382;-70
2021/12/03 05:50:43;;;;;;;6.45;1.48;;;23.00;43.90;;;;;;6134188;28;82198;-70
2021/12/03 05:53:43;;;;;;;3.08;1.42;;;23.00;44.30;;;;;;6131915;28;80826;-70
2021/12/03 05:56:44;;;;;;;79.65;33.42;;;22.90;44.50;;;;;;6140632;28;80229;-70
2021/12/03 05:59:44;;;;;;;198.80;93.40;;;23.00;44.90;;;;;;6140540;28;83605;-69
2021/12/03 06:02:45;;;;;;;145.65;69.38;;;23.00;45.60;;;;;;6131610;28;85710;-71
2021/12/03 06:05:45;;;;;;;112.35;52.60;;;23.00;45.40;;;;;;6125221;28;83909;-71
2021/12/03 06:08:46;;;;;;;88.43;43.28;;;23.00;45.70;;;;;;6133981;28;82980;-71
2021/12/03 06:11:46;;;;;;;73.53;36.20;;;23.00;46.10;;;;;;6125729;28;83042;-72
2021/12/03 06:14:47;;;;;;;59.88;26.30;;;23.00;46.10;;;;;;6131691;28;85142;-74
2021/12/03 06:17:48;;;;;;;82.25;38.47;;;22.90;46.10;;;;;;6134252;28;82998;-70
2021/12/03 06:20:48;;;;;;;164.40;77.78;;;22.80;46.80;;;;;;6128346;28;83487;-71
2021/12/03 06:23:49;;;;;;;212.07;96.18;;;22.80;47.30;;;;;;6125562;28;83073;-72
2021/12/03 06:26:49;;;;;;;173.45;79.60;;;22.80;47.30;;;;;;6125659;28;84196;-72
2021/12/03 06:29:50;;;;;;;133.85;61.88;;;22.80;47.90;;;;;;6133067;28;82931;-69
2021/12/03 06:32:50;;;;;;;134.60;60.17;;;22.70;48.00;;;;;;6135374;28;84216;-73
2021/12/03 06:35:51;;;;;;;117.35;53.40;;;22.80;47.60;;;;;;6135273;28;83228;-72
2021/12/03 06:38:51;;;;;;;111.93;45.20;;;22.90;47.50;;;;;;6133304;28;86091;-71
2021/12/03 06:41:52;;;;;;;87.72;39.72;;;22.90;46.80;;;;;;6131911;28;84110;-72
2021/12/03 06:44:52;;;;;;;78.53;36.35;;;23.00;46.60;;;;;;6138335;28;83986;-75
2021/12/03 06:47:53;;;;;;;74.15;31.98;;;23.00;46.50;;;;;;6129039;28;82984;-70
2021/12/03 06:50:53;;;;;;;63.97;29.40;;;23.00;45.90;;;;;;6131707;28;84074;-72
2021/12/03 06:54:05;;;;;;;60.42;27.80;;;23.00;45.80;;;;;;6118203;28;82963;-70
2021/12/03 06:57:06;;;;;;;60.78;26.92;;;23.00;45.40;;;;;;6134287;28;83238;-70
2021/12/03 07:00:07;;;;;;;48.28;22.58;;;23.00;44.90;;;;;;6134874;28;84053;-72
2021/12/03 07:03:07;;;;;;;45.05;21.77;;;23.00;45.20;;;;;;6137935;28;83953;-69
2021/12/03 07:06:11;;;;;;;37.47;17.48;;;23.00;45.10;;;;;;6139977;28;83367;-75
2021/12/03 07:09:11;;;;;;;33.10;16.13;;;22.90;44.70;;;;;;6131551;28;83024;-72
2021/12/03 07:12:13;;;;;;;30.42;15.57;;;22.90;44.90;;;;;;6127548;28;83661;-72
2021/12/03 07:15:14;;;;;;;26.90;14.20;;;22.90;44.80;;;;;;6123632;28;83073;-73
2021/12/03 07:18:14;;;;;;;26.02;13.52;;;22.90;44.70;;;;;;6129928;28;85731;-74
2021/12/03 07:21:15;;;;;;;28.85;13.20;;;22.90;44.70;;;;;;6127228;28;83497;-73
2021/12/03 07:24:15;;;;;;;24.85;11.10;;;22.80;44.90;;;;;;6127328;28;83804;-73
2021/12/03 07:27:16;;;;;;;26.35;12.18;;;22.80;44.90;;;;;;6129979;28;83386;-73
2021/12/03 07:30:16;;;;;;;20.33;10.95;;;22.80;44.70;;;;;;6131190;28;83199;-73
2021/12/03 07:33:18;;;;;;;24.52;11.13;;;22.80;44.80;;;;;;6123427;28;83079;-73
2021/12/03 07:36:18;;;;;;;18.15;9.98;;;22.80;45.00;;;;;;6120700;28;83216;-71
2021/12/03 07:39:19;;;;;;;17.17;9.35;;;22.90;45.10;;;;;;6129798;28;84303;-73
2021/12/03 07:42:19;;;;;;;20.88;9.07;;;22.90;45.10;;;;;;6132543;28;82865;-74
2021/12/03 07:45:20;;;;;;;18.85;9.45;;;23.00;44.90;;;;;;6126958;28;80471;-75
2021/12/03 07:48:22;;;;;;;15.35;8.10;;;23.00;44.70;;;;;;6133348;28;80869;-74
2021/12/03 07:51:23;;;;;;;18.25;8.30;;;23.00;44.50;;;;;;6129866;28;80805;-75
2021/12/03 07:54:23;;;;;;;11.73;6.22;;;23.10;44.10;;;;;;6132108;28;80796;-72
2021/12/03 07:57:24;;;;;;;15.73;7.25;;;23.10;44.30;;;;;;6133238;28;82462;-74
2021/12/03 08:00:25;;;;;;;15.95;6.43;;;23.10;44.70;;;;;;6130743;28;80556;-73
2021/12/03 08:03:25;;;;;;;18.98;7.47;;;23.20;44.00;;;;;;6122903;28;80591;-73
2021/12/03 08:06:26;;;;;;;12.77;6.65;;;23.30;44.40;;;;;;6132744;28;81416;-73
2021/12/03 08:09:26;;;;;;;10.57;6.10;;;23.30;44.20;;;;;;6134521;28;80838;-73
2021/12/03 08:12:27;;;;;;;12.75;6.15;;;23.30;44.50;;;;;;6134852;28;80134;-70
2021/12/03 08:15:27;;;;;;;9.70;5.18;;;23.30;44.40;;;;;;6135625;28;86649;-71
2021/12/03 08:18:28;;;;;;;11.25;5.55;;;23.40;44.40;;;;;;6136064;28;85767;-72
2021/12/03 08:21:29;;;;;;;15.10;5.60;;;23.40;44.10;;;;;;6133750;28;80419;-73
2021/12/03 08:24:30;;;;;;;12.40;4.80;;;23.50;43.80;;;;;;6131575;28;81652;-74
2021/12/03 08:27:30;;;;;;;10.82;5.00;;;23.50;43.50;;;;;;6129552;28;81829;-73
2021/12/03 08:30:31;;;;;;;7.20;4.53;;;23.60;44.30;;;;;;6136865;28;80321;-74
2021/12/03 08:33:31;;;;;;;9.05;4.70;;;23.60;43.50;;;;;;6132021;28;80545;-71
2021/12/03 08:36:32;;;;;;;12.50;5.30;;;23.60;43.10;;;;;;6135163;28;80900;-74
2021/12/03 08:39:32;;;;;;;9.48;4.93;;;23.70;43.30;;;;;;6133003;28;80795;-73
2021/12/03 08:42:33;;;;;;;7.47;4.32;;;23.70;42.40;;;;;;6126329;28;80451;-73
2021/12/03 08:45:36;;;;;;;9.75;4.57;;;23.70;42.90;;;;;;6132663;28;81043;-73
2021/12/03 08:48:43;;;;;;;11.02;4.00;;;23.70;43.70;;;;;;6128604;28;80324;-74
2021/12/03 08:57:50;;;;;;;13.52;4.38;;;23.50;43.80;;;;;;6130468;28;81461;-63
2021/12/03 09:00:51;;;;;;;8.40;4.28;;;23.50;44.50;;;;;;6134166;28;81525;-67
2021/12/03 09:03:53;;;;;;;12.35;3.35;;;23.50;44.40;;;;;;6132920;28;80618;-72
2021/12/03 09:06:53;;;;;;;10.80;3.67;;;23.50;44.80;;;;;;6133454;28;80656;-72
2021/12/03 09:09:54;;;;;;;8.90;3.58;;;23.50;44.30;;;;;;6133838;28;83424;-74
2021/12/03 09:12:54;;;;;;;6.63;2.90;;;23.40;44.50;;;;;;6135806;28;81008;-73
2021/12/03 09:16:03;;;;;;;5.05;2.92;;;23.40;44.80;;;;;;6148678;28;81538;-68
2021/12/03 09:19:10;;;;;;;10.48;3.28;;;23.40;44.80;;;;;;6149173;28;80045;-77
2021/12/03 09:22:16;;;;;;;6.55;3.08;;;23.30;44.80;;;;;;6150790;28;80287;-70
2021/12/03 09:25:19;;;;;;;9.05;2.97;;;23.30;44.90;;;;;;6135016;28;80690;-68
2021/12/03 09:28:20;;;;;;;6.43;3.00;;;23.30;44.50;;;;;;6135174;28;80948;-72
2021/12/03 09:31:22;;;;;;;4.80;2.83;;;23.30;44.50;;;;;;6137199;28;80264;-72
2021/12/03 09:34:24;;;;;;;5.20;2.58;;;23.30;45.20;;;;;;6136687;28;80267;-72
2021/12/03 09:37:24;;;;;;;5.35;2.70;;;23.40;45.60;;;;;;6135111;28;81056;-72
2021/12/03 09:40:29;;;;;;;3.63;2.50;;;23.30;44.60;;;;;;6133495;28;80850;-78
2021/12/03 09:43:30;;;;;;;4.43;2.88;;;23.30;44.70;;;;;;6132928;28;80652;-75
2021/12/03 09:46:30;;;;;;;3.92;1.90;;;23.30;44.90;;;;;;6132968;28;80572;-76
2021/12/03 09:52:48;;;;;;;6.47;1.90;;;23.30;44.90;;;;;;6135583;28;80400;-76
2021/12/03 09:55:48;;;;;;;3.20;1.83;;;23.30;44.90;;;;;;6138721;28;81577;-78
2021/12/03 10:12:26;;;;;;;2.28;1.52;;;23.20;45.40;;;;;;6137885;28;80494;-72
2021/12/03 10:15:02;;;;;;;4.13;2.03;;;23.20;44.80;;;;;;6140497;28;82975;-74
2021/12/03 10:18:09;;;;;;;5.03;1.73;;;23.20;45.30;;;;;;6139384;28;83223;-78
2021/12/03 10:21:19;;;;;;;1.95;1.23;;;23.10;45.30;;;;;;6136764;28;80470;-78
2021/12/03 10:24:36;;;;;;;4.60;1.60;;;23.10;45.70;;;;;;6135915;28;80165;-77
2021/12/03 10:40:16;;;;;;;2.85;1.88;;;23.10;47.80;;;;;;6131575;28;81210;-71
2021/12/03 10:43:30;;;;;;;5.63;2.17;;;23.30;48.30;;;;;;6134667;28;81811;-74
2021/12/03 10:49:52;;;;;;;2.55;1.75;;;23.60;47.30;;;;;;6133515;28;80456;-74
2021/12/03 10:56:36;;;;;;;3.88;1.80;;;23.90;45.90;;;;;;6134183;28;81364;-74
2021/12/03 11:16:09;;;;;;;9.73;2.53;;;24.60;42.90;;;;;;6145011;28;86336;-74
2021/12/03 11:29:28;;;;;;;7.57;4.43;;;24.10;30.90;;;;;;6150079;28;80251;-73
2021/12/03 11:39:38;;;;;;;12.07;4.70;;;23.50;29.70;;;;;;6155049;28;82996;-73
2021/12/03 11:52:54;;;;;;;7.72;4.70;;;22.90;28.20;;;;;;6132364;28;81110;-72
2021/12/03 11:59:20;;;;;;;7.07;4.33;;;22.90;28.20;;;;;;6136537;28;80717;-72
2021/12/03 12:29:30;;;;;;;8.50;4.57;;;22.20;26.90;;;;;;6134804;28;80427;-71
2021/12/03 12:44:58;;;;;;;14.20;5.32;;;22.10;27.10;;;;;;6135827;28;81098;-72
2021/12/03 13:25:23;;;;;;;5.20;2.58;;;23.40;32.30;;;;;;6128370;28;80505;-76
2021/12/03 13:36:27;;;;;;;4.90;2.80;;;23.90;33.10;;;;;;6150220;28;81424;-75
2021/12/03 14:15:33;;;;;;;5.20;2.83;;;24.30;35.60;;;;;;6172162;28;80388;-78
2021/12/03 14:22:41;;;;;;;8.48;3.70;;;24.10;34.10;;;;;;6170620;28;80631;-77
2021/12/03 14:37:34;;;;;;;7.07;3.53;;;23.90;33.90;;;;;;6168959;28;80656;-78
2021/12/03 14:44:01;;;;;;;6.18;3.42;;;23.80;33.30;;;;;;6168825;28;80728;-79
2021/12/03 14:56:35;;;;;;;7.93;4.32;;;23.70;34.20;;;;;;6175280;28;81102;-71
2021/12/03 14:59:38;;;;;;;7.72;3.83;;;23.70;34.20;;;;;;6163611;28;81668;-74
2021/12/03 15:02:52;;;;;;;10.13;3.70;;;23.60;34.60;;;;;;6154905;28;80321;-68
2021/12/03 15:07:02;;;;;;;8.45;4.30;;;23.60;34.80;;;;;;6148967;28;80880;-70
2021/12/03 15:09:35;;;;;;;6.43;3.95;;;23.60;34.80;;;;;;6147383;28;81697;-68
2021/12/03 15:13:10;;;;;;;8.95;3.85;;;23.50;35.40;;;;;;6146521;28;85847;-69
2021/12/03 15:26:05;;;;;;;7.43;3.58;;;23.50;36.40;;;;;;6156638;28;81706;-73
2021/12/03 15:32:57;;;;;;;8.43;4.00;;;23.30;36.90;;;;;;6177575;28;80892;-73
2021/12/03 15:36:06;;;;;;;11.30;3.78;;;23.30;36.70;;;;;;6144335;28;87159;-75
2021/12/03 15:53:08;;;;;;;7.13;4.05;;;23.30;38.10;;;;;;6151588;28;80451;-72
2021/12/03 16:08:35;;;;;;;8.18;4.20;;;23.20;38.10;;;;;;6168592;28;80785;-74
2021/12/03 16:11:48;;;;;;;54.92;23.33;;;23.20;38.80;;;;;;6157222;28;80156;-70
2021/12/03 16:15:05;;;;;;;151.55;72.80;;;23.20;39.10;;;;;;6147417;28;83768;-76
2021/12/03 16:21:45;;;;;;;309.88;143.15;;;23.20;39.30;;;;;;6151459;28;82791;-72
2021/12/03 16:25:02;;;;;;;243.18;115.47;;;23.10;41.00;;;;;;6146872;28;87607;-69
2021/12/03 16:51:24;;;;;;;66.10;29.92;;;23.10;40.00;;;;;;6138830;28;83861;-77
2021/12/03 16:54:42;;;;;;;87.50;26.48;;;23.00;39.40;;;;;;6144480;28;83140;-76
2021/12/03 16:57:44;;;;;;;53.30;25.88;;;23.10;39.60;;;;;;6144656;28;86338;-76
2021/12/03 17:00:51;;;;;;;43.95;20.33;;;23.10;40.50;;;;;;6156793;28;83228;-76
2021/12/03 17:04:00;;;;;;;37.85;18.60;;;23.10;39.80;;;;;;6157995;28;83147;-77
2021/12/03 17:10:50;;;;;;;31.92;14.90;;;23.10;39.50;;;;;;6161057;28;82950;-76
2021/12/03 17:49:28;;;;;;;19.95;10.13;;;23.00;36.40;;;;;;6154963;28;82956;-75
2021/12/03 17:52:44;;;;;;;23.63;10.60;;;22.90;36.30;;;;;;6149688;28;83256;-75
2021/12/03 17:56:04;;;;;;;25.80;10.95;;;23.00;36.60;;;;;;6142488;28;83483;-75
2021/12/03 17:59:13;;;;;;;23.77;11.32;;;23.00;35.80;;;;;;6154205;28;84503;-78
2021/12/03 18:02:23;;;;;;;21.08;11.30;;;23.10;35.20;;;;;;6144978;28;84443;-75
2021/12/03 18:05:52;;;;;;;29.33;11.75;;;23.20;35.20;;;;;;6154327;28;83050;-75
2021/12/03 18:45:13;;;;;;;20.77;11.00;;;23.50;31.90;;;;;;6158890;28;82991;-79
2021/12/03 18:52:29;;;;;;;24.55;11.93;;;23.40;31.50;;;;;;6156591;28;88043;-81
2021/12/03 18:55:06;;;;;;;22.27;12.65;;;23.40;31.30;;;;;;6149347;28;83140;-80
2021/12/03 18:58:08;;;;;;;22.80;12.13;;;23.50;31.40;;;;;;6157124;28;83339;-80
2021/12/03 19:01:11;;;;;;;21.63;13.18;;;23.50;31.20;;;;;;6155464;28;83048;-80
2021/12/03 19:07:30;;;;;;;21.27;12.25;;;23.40;31.10;;;;;;6152688;28;82740;-78
2021/12/03 19:10:33;;;;;;;27.13;14.02;;;23.40;31.60;;;;;;6144642;28;83519;-78
2021/12/03 19:13:37;;;;;;;23.45;12.95;;;23.40;30.90;;;;;;6154393;28;83111;-79
2021/12/03 19:16:38;;;;;;;25.00;13.90;;;23.40;30.90;;;;;;6152169;28;83624;-81
2021/12/03 19:19:43;;;;;;;25.65;14.23;;;23.30;31.20;;;;;;6155107;28;82827;-78
2021/12/03 19:22:44;;;;;;;23.95;12.70;;;23.30;31.10;;;;;;6156529;28;84085;-78
2021/12/03 19:25:44;;;;;;;23.17;12.73;;;23.30;30.80;;;;;;6142981;28;85631;-78
2021/12/03 19:28:46;;;;;;;23.33;12.65;;;23.30;31.20;;;;;;6154670;28;83077;-77
2021/12/03 19:31:48;;;;;;;22.88;12.57;;;23.20;31.40;;;;;;6155098;28;83488;-80
2021/12/03 19:34:49;;;;;;;21.08;12.27;;;23.20;32.40;;;;;;6154381;28;85079;-78
2021/12/03 19:37:53;;;;;;;24.67;12.27;;;23.30;32.20;;;;;;6155482;28;83700;-76
2021/12/03 19:41:04;;;;;;;22.77;11.98;;;23.20;32.40;;;;;;6150426;28;84390;-76
2021/12/03 19:44:08;;;;;;;25.27;12.38;;;23.20;32.40;;;;;;6153354;28;83147;-75
2021/12/03 19:47:10;;;;;;;20.30;12.02;;;23.20;32.40;;;;;;6150339;28;84811;-79
2021/12/03 19:50:21;;;;;;;21.10;11.85;;;23.20;32.00;;;;;;6157818;28;84712;-78
2021/12/03 19:53:28;;;;;;;17.00;10.35;;;23.10;31.90;;;;;;6150386;28;83247;-78
2021/12/03 19:56:28;;;;;;;19.13;10.20;;;23.10;31.90;;;;;;6151737;28;83274;-77
2021/12/03 19:59:29;;;;;;;20.50;11.05;;;23.10;32.00;;;;;;6156363;28;83009;-79
2021/12/03 20:02:29;;;;;;;20.65;11.20;;;23.10;31.70;;;;;;6149937;28;83438;-77
2021/12/03 20:05:30;;;;;;;22.08;11.30;;;23.10;31.70;;;;;;6152191;28;84310;-79
2021/12/03 20:08:30;;;;;;;17.73;10.30;;;23.00;30.90;;;;;;6149453;28;83184;-79
2021/12/03 20:11:39;;;;;;;19.17;10.38;;;23.00;31.50;;;;;;6155789;28;83187;-77
2021/12/03 20:14:42;;;;;;;19.40;9.98;;;23.00;31.90;;;;;;6150743;28;83076;-78
2021/12/03 20:17:50;;;;;;;19.55;10.88;;;23.00;31.70;;;;;;6150920;28;83294;-79
2021/12/03 20:20:50;;;;;;;21.85;10.77;;;23.00;31.70;;;;;;6147985;28;83822;-80
2021/12/03 20:27:12;;;;;;;17.58;10.27;;;22.90;32.50;;;;;;6156718;28;82815;-78
2021/12/03 20:30:23;;;;;;;20.35;10.65;;;22.90;31.20;;;;;;6164750;28;82725;-77
2021/12/03 20:34:10;;;;;;;18.33;10.75;;;22.90;31.70;;;;;;6174203;28;84725;-77
2021/12/03 20:36:51;;;;;;;17.02;9.52;;;22.80;31.90;;;;;;6170916;28;87538;-78
2021/12/03 20:39:54;;;;;;;18.80;10.70;;;22.80;31.80;;;;;;6179521;28;83288;-78
2021/12/03 20:43:06;;;;;;;18.42;11.00;;;22.80;31.80;;;;;;6158912;28;83408;-77
2021/12/03 20:46:39;;;;;;;20.63;10.73;;;22.80;32.30;;;;;;6147194;28;83189;-77
2021/12/03 21:09:15;;;;;;;16.42;9.18;;;22.80;30.30;;;;;;6153423;28;83483;-76
2021/12/03 21:24:36;;;;;;;24.67;11.45;;;22.90;29.60;;;;;;6137573;28;84490;-78
2021/12/03 21:27:40;;;;;;;17.83;10.23;;;22.90;30.00;;;;;;6139443;28;83280;-78
2021/12/03 21:30:55;;;;;;;18.25;10.13;;;22.90;30.50;;;;;;6138912;28;83652;-82
2021/12/03 21:43:53;;;;;;;16.23;9.55;;;22.90;31.40;;;;;;6153116;28;80403;-77
2021/12/03 21:46:54;;;;;;;15.90;9.45;;;22.90;31.40;;;;;;6151670;28;81171;-77
2021/12/03 21:49:54;;;;;;;17.77;9.88;;;22.90;30.70;;;;;;6144668;28;80390;-78
2021/12/03 21:52:55;;;;;;;16.55;9.38;;;22.90;30.60;;;;;;6147481;28;80423;-74
2021/12/03 21:55:55;;;;;;;16.55;8.75;;;22.80;30.90;;;;;;6137185;28;82863;-74
2021/12/03 21:58:56;;;;;;;18.52;9.93;;;22.80;31.60;;;;;;6137123;28;80949;-74
2021/12/03 22:01:57;;;;;;;17.40;8.80;;;22.80;30.40;;;;;;6138198;28;81596;-75
2021/12/03 22:04:58;;;;;;;17.50;9.80;;;22.80;30.10;;;;;;6153492;28;81640;-76
2021/12/03 22:07:59;;;;;;;14.20;8.95;;;22.80;30.00;;;;;;6150777;28;81559;-75
2021/12/03 22:10:59;;;;;;;16.73;9.20;;;22.80;30.40;;;;;;6151522;28;81331;-75
2021/12/03 22:14:00;;;;;;;16.75;8.88;;;22.80;30.50;;;;;;6146628;28;82023;-75
2021/12/03 22:17:01;;;;;;;15.57;9.35;;;22.80;30.30;;;;;;6151989;28;80454;-76
2021/12/03 22:20:01;;;;;;;17.17;9.10;;;22.80;30.70;;;;;;6155507;28;80424;-76
2021/12/03 22:23:02;;;;;;;13.00;8.55;;;22.80;30.90;;;;;;6159191;28;81562;-75
2021/12/03 22:26:02;;;;;;;17.10;8.27;;;22.70;30.60;;;;;;6153031;28;80445;-77
2021/12/03 22:29:03;;;;;;;14.40;8.20;;;22.70;31.20;;;;;;6154077;28;81509;-76
2021/12/03 22:32:04;;;;;;;13.55;8.40;;;22.70;31.10;;;;;;6143086;28;81475;-74
2021/12/03 22:35:05;;;;;;;16.17;9.18;;;22.70;31.10;;;;;;6154115;28;80560;-74
2021/12/03 22:38:07;;;;;;;14.50;8.38;;;22.70;32.00;;;;;;6157746;28;80398;-75
2021/12/03 22:41:09;;;;;;;13.73;7.38;;;22.70;31.40;;;;;;6159749;28;80401;-78
2021/12/03 22:44:10;;;;;;;15.25;8.57;;;22.60;31.50;;;;;;6157445;28;81559;-79
2021/12/03 22:47:18;;;;;;;14.50;8.52;;;22.70;32.00;;;;;;6152282;28;83302;-78
2021/12/03 22:50:29;;;;;;;14.50;8.07;;;22.60;31.70;;;;;;6175989;28;82525;-75
2021/12/03 22:53:29;;;;;;;15.55;8.18;;;22.60;31.70;;;;;;6181522;28;81086;-77